Time;durP1;ratioP1;P1;durP2;ratioP2;P2;SDS_P1;SDS_P2;PMS_P1;PMS_P2;Temp;Humidity;BMP_temperature;BMP_pressure;BME280_temperature;BME280_humidity;BME280_pressure;Samples;Min_cycle;Max_cycle;Signal;HPM_P1;HPM_P2
2020/12/18 00:00:08;;;;;;;26.90;22.83;;;;;;;1.30;100.00;96641.66;1027429;28;20029;-71
2020/12/18 00:00:38;;;;;;;22.90;20.08;;;;;;;1.30;100.00;96641.66;1031247;28;20037;-68
2020/12/18 00:01:09;;;;;;;24.35;20.67;;;;;;;1.32;100.00;96637.13;1030064;28;20590;-71
2020/12/18 00:01:39;;;;;;;22.23;19.83;;;;;;;1.28;100.00;96637.66;1033370;28;20131;-70
2020/12/18 00:02:10;;;;;;;24.20;20.63;;;;;;;1.26;100.00;96640.41;1034302;28;20017;-73
2020/12/18 00:02:40;;;;;;;28.38;22.27;;;;;;;1.28;100.00;96637.66;1033459;28;20661;-71
2020/12/18 00:03:11;;;;;;;25.65;21.13;;;;;;;1.30;100.00;96646.03;1030340;28;20021;-71
2020/12/18 00:03:41;;;;;;;27.27;22.38;;;;;;;1.28;100.00;96643.63;1020838;28;20928;-72
2020/12/18 00:04:12;;;;;;;24.77;20.90;;;;;;;1.30;100.00;96644.25;1026338;28;20023;-71
2020/12/18 00:04:46;;;;;;;24.27;20.27;;;;;;;1.31;100.00;96642.47;1026351;28;20027;-73
2020/12/18 00:05:16;;;;;;;28.06;22.44;;;;;;;1.32;100.00;96644.06;1030884;28;20080;-72
2020/12/18 00:05:47;;;;;;;24.63;21.15;;;;;;;1.34;100.00;96642.09;1051317;28;20040;-71
2020/12/18 00:06:17;;;;;;;27.85;21.20;;;;;;;1.33;100.00;96641.28;1046343;28;20069;-72
2020/12/18 00:06:48;;;;;;;24.70;20.50;;;;;;;1.36;100.00;96642.72;1030417;28;20057;-71
2020/12/18 00:07:19;;;;;;;30.85;22.67;;;;;;;1.36;100.00;96642.72;1029923;28;20026;-71
2020/12/18 00:07:49;;;;;;;28.30;22.58;;;;;;;1.38;100.00;96645.94;1030472;28;20025;-73
2020/12/18 00:08:20;;;;;;;29.30;23.98;;;;;;;1.33;100.00;96632.75;1026776;28;20503;-71
2020/12/18 00:08:53;;;;;;;29.95;24.33;;;;;;;1.36;100.00;96643.53;1022352;28;20141;-71
2020/12/18 00:09:24;;;;;;;24.32;20.66;;;;;;;1.31;100.00;96643.28;1030117;28;20452;-71
2020/12/18 00:09:54;;;;;;;28.50;22.70;;;;;;;1.34;100.00;96637.75;1032256;28;20041;-71
2020/12/18 00:10:26;;;;;;;27.85;23.15;;;;;;;1.33;100.00;96637.91;1037349;28;20607;-72
2020/12/18 00:10:57;;;;;;;29.36;21.84;;;;;;;1.20;100.00;96624.84;1026467;28;21902;-71
2020/12/18 00:11:27;;;;;;;27.70;22.60;;;;;;;1.27;100.00;96636.03;1020353;29;20111;-72
2020/12/18 00:11:58;;;;;;;32.35;23.63;;;;;;;1.28;100.00;96640.25;1018593;29;20032;-72
2020/12/18 00:12:29;;;;;;;32.10;23.58;;;;;;;1.24;100.00;96632.06;1019939;28;20016;-72
2020/12/18 00:12:59;;;;;;;29.02;23.90;;;;;;;1.11;100.00;96612.03;1018169;28;20028;-73
2020/12/18 00:13:30;;;;;;;29.00;23.23;;;;;;;1.24;100.00;96634.66;1022544;29;20027;-72
2020/12/18 00:14:00;;;;;;;29.38;23.27;;;;;;;1.09;100.00;96608.81;1022241;29;20031;-70
2020/12/18 00:14:31;;;;;;;29.60;22.92;;;;;;;1.17;100.00;96624.22;1022483;28;20020;-70
2020/12/18 00:15:01;;;;;;;29.80;23.55;;;;;;;1.21;100.00;96627.25;1026429;28;20070;-72
2020/12/18 00:15:32;;;;;;;29.27;23.23;;;;;;;1.16;100.00;96619.22;1034007;28;20411;-70
2020/12/18 00:16:02;;;;;;;31.27;24.35;;;;;;;1.25;100.00;96630.28;1026291;28;20033;-71
2020/12/18 00:16:34;;;;;;;28.45;22.65;;;;;;;1.10;100.00;96612.19;1026967;28;20028;-71
2020/12/18 00:17:05;;;;;;;25.16;21.20;;;;;;;1.18;100.00;96633.59;1026351;28;20023;-71
2020/12/18 00:17:35;;;;;;;30.84;24.64;;;;;;;1.20;100.00;96635.19;1027763;28;20046;-73
2020/12/18 00:18:06;;;;;;;24.80;21.27;;;;;;;1.16;100.00;96635.53;1026696;28;20437;-70
2020/12/18 00:18:36;;;;;;;28.42;22.60;;;;;;;1.15;100.00;96633.94;1033519;28;20026;-71
2020/12/18 00:19:07;;;;;;;26.05;22.35;;;;;;;1.18;100.00;96637.94;1034362;28;20026;-72
2020/12/18 00:19:37;;;;;;;27.85;23.63;;;;;;;1.16;100.00;96637.31;1034667;28;20025;-71
2020/12/18 00:20:08;;;;;;;30.70;24.70;;;;;;;1.09;100.00;96629.50;1033723;28;20109;-70
2020/12/18 00:20:38;;;;;;;28.95;24.63;;;;;;;1.11;100.00;96642.25;1026614;28;20500;-71
2020/12/18 00:21:09;;;;;;;31.85;24.75;;;;;;;1.11;100.00;96637.88;1027572;28;20110;-71
2020/12/18 00:21:39;;;;;;;30.40;24.42;;;;;;;1.15;100.00;96644.28;1025959;28;20514;-71
2020/12/18 00:22:10;;;;;;;31.02;23.67;;;;;;;1.12;100.00;96639.47;1034724;28;20023;-72
2020/12/18 00:22:40;;;;;;;27.20;22.85;;;;;;;1.14;100.00;96637.50;1028575;28;20023;-73
2020/12/18 00:23:11;;;;;;;28.60;22.83;;;;;;;1.12;100.00;96639.47;1025790;28;20397;-70
2020/12/18 00:23:41;;;;;;;29.08;23.17;;;;;;;1.11;100.00;96632.69;1031585;28;20102;-71
2020/12/18 00:24:12;;;;;;;29.52;22.95;;;;;;;1.11;100.00;96637.06;1026484;28;20484;-71
2020/12/18 00:24:43;;;;;;;30.15;23.92;;;;;;;1.08;100.00;96638.22;1029236;28;20034;-72
2020/12/18 00:25:14;;;;;;;27.52;22.16;;;;;;;1.03;100.00;96626.81;1046152;28;20114;-73
2020/12/18 00:25:47;;;;;;;24.15;20.98;;;;;;;0.99;100.00;96623.81;1030839;28;20023;-70
2020/12/18 00:26:18;;;;;;;29.08;23.38;;;;;;;1.02;100.00;96638.94;1022372;29;20477;-71
2020/12/18 00:26:49;;;;;;;32.85;24.45;;;;;;;0.96;100.00;96624.16;1023236;28;20016;-71
2020/12/18 00:27:19;;;;;;;32.08;25.05;;;;;;;1.02;100.00;96633.78;1026019;28;20027;-71
2020/12/18 00:27:49;;;;;;;28.88;22.90;;;;;;;1.03;100.00;96634.56;1024827;28;20018;-71
2020/12/18 00:28:20;;;;;;;25.40;21.27;;;;;;;1.02;100.00;96632.97;1027214;28;20018;-71
2020/12/18 00:28:50;;;;;;;25.63;21.17;;;;;;;1.01;100.00;96632.19;1034374;28;20025;-72
2020/12/18 00:29:21;;;;;;;25.33;21.60;;;;;;;1.02;100.00;96628.63;1030989;28;20057;-72
2020/12/18 00:29:51;;;;;;;30.50;23.80;;;;;;;1.04;100.00;96639.59;1027160;28;20030;-71
2020/12/18 00:30:22;;;;;;;26.08;21.98;;;;;;;1.00;100.00;96640.91;1025318;28;20031;-71
2020/12/18 00:30:52;;;;;;;26.13;21.75;;;;;;;1.00;100.00;96643.47;1022344;28;20043;-70
2020/12/18 00:31:26;;;;;;;28.65;22.85;;;;;;;1.00;100.00;96633.16;1021916;29;20027;-70
2020/12/18 00:31:57;;;;;;;27.28;22.30;;;;;;;0.99;100.00;96634.13;1017227;28;20045;-70
2020/12/18 00:32:27;;;;;;;27.20;23.20;;;;;;;1.01;100.00;96642.53;1027708;28;20030;-73
2020/12/18 00:32:58;;;;;;;32.53;24.70;;;;;;;0.98;100.00;96637.72;1027100;28;20050;-71
2020/12/18 00:33:28;;;;;;;29.10;24.50;;;;;;;0.99;100.00;96636.72;1030364;28;20052;-71
2020/12/18 00:33:58;;;;;;;29.08;24.30;;;;;;;0.96;100.00;96629.31;1030428;28;20054;-70
2020/12/18 00:34:29;;;;;;;27.70;22.65;;;;;;;0.99;100.00;96634.13;1026532;28;20031;-70
2020/12/18 00:34:59;;;;;;;29.40;24.02;;;;;;;0.99;100.00;96628.16;1034484;28;20878;-72
2020/12/18 00:35:30;;;;;;;33.70;23.92;;;;;;;0.99;100.00;96628.97;1026477;28;20118;-70
2020/12/18 00:36:00;;;;;;;29.92;24.05;;;;;;;0.94;100.00;96615.81;1022424;28;20031;-73
2020/12/18 00:36:31;;;;;;;30.92;24.05;;;;;;;0.94;100.00;96615.81;1022704;28;20570;-71
2020/12/18 00:37:01;;;;;;;29.95;23.65;;;;;;;0.94;100.00;96623.56;1022342;28;20028;-71
2020/12/18 00:37:32;;;;;;;30.65;23.73;;;;;;;0.87;100.00;96609.72;1022772;28;20027;-71
2020/12/18 00:38:03;;;;;;;32.33;25.75;;;;;;;0.92;100.00;96622.91;1026295;28;20029;-72
2020/12/18 00:38:33;;;;;;;29.95;24.02;;;;;;;0.91;100.00;96626.50;1028100;28;20027;-70
2020/12/18 00:39:04;;;;;;;32.13;24.20;;;;;;;0.90;100.00;96624.88;1030580;28;20031;-72
2020/12/18 00:39:35;;;;;;;30.96;24.58;;;;;;;0.85;100.00;96620.25;1026932;28;20054;-72
2020/12/18 00:40:06;;;;;;;28.52;23.05;;;;;;;0.77;100.00;96610.03;1050324;28;20043;-70
2020/12/18 00:40:37;;;;;;;30.92;24.80;;;;;;;0.79;100.00;96612.41;1020376;28;20080;-69
2020/12/18 00:41:07;;;;;;;28.70;24.27;;;;;;;0.82;100.00;96617.22;1047661;28;20020;-71
2020/12/18 00:41:38;;;;;;;30.63;24.00;;;;;;;0.85;100.00;96627.22;1042810;28;20028;-71
2020/12/18 00:42:08;;;;;;;30.15;24.10;;;;;;;0.85;100.00;96616.88;1042813;28;20585;-71
2020/12/18 00:42:38;;;;;;;31.35;24.75;;;;;;;0.81;100.00;96616.44;1029563;28;20026;-71
2020/12/18 00:43:09;;;;;;;31.58;25.20;;;;;;;0.81;100.00;96615.63;1026141;28;20056;-72
2020/12/18 00:43:39;;;;;;;34.83;26.02;;;;;;;0.81;100.00;96619.00;1030429;28;20115;-70
2020/12/18 00:44:10;;;;;;;33.53;26.85;;;;;;;0.83;100.00;96616.25;1034228;28;20030;-71
2020/12/18 00:44:40;;;;;;;32.70;25.70;;;;;;;0.81;100.00;96620.81;1034452;28;20635;-71
2020/12/18 00:45:11;;;;;;;34.25;25.58;;;;;;;0.75;100.00;96608.59;1034615;28;20899;-70
2020/12/18 00:45:44;;;;;;;30.52;24.33;;;;;;;0.80;100.00;96614.81;1032448;28;20034;-72
2020/12/18 00:46:15;;;;;;;31.86;24.96;;;;;;;0.78;100.00;96616.78;1030156;28;20483;-73
2020/12/18 00:46:45;;;;;;;30.25;24.33;;;;;;;0.72;100.00;96603.78;1026878;28;20030;-72
2020/12/18 00:47:16;;;;;;;32.03;24.63;;;;;;;0.69;100.00;96602.34;1026395;28;20055;-72
2020/12/18 00:47:46;;;;;;;29.85;24.48;;;;;;;0.75;100.00;96611.19;1029718;28;20059;-71
2020/12/18 00:48:17;;;;;;;29.48;24.05;;;;;;;0.75;100.00;96611.19;1024365;28;20929;-70
2020/12/18 00:48:47;;;;;;;34.78;25.17;;;;;;;0.73;100.00;96613.94;1026430;28;20023;-70
2020/12/18 00:49:18;;;;;;;30.15;25.00;;;;;;;0.72;100.00;96611.53;1026404;28;20038;-72
2020/12/18 00:49:48;;;;;;;32.90;24.98;;;;;;;0.69;100.00;96613.47;1022509;28;20034;-70
2020/12/18 00:50:19;;;;;;;34.20;25.70;;;;;;;0.67;100.00;96606.88;1024387;28;20038;-70
2020/12/18 00:50:49;;;;;;;36.78;26.65;;;;;;;0.66;100.00;96611.25;1026350;28;20110;-71
2020/12/18 00:51:20;;;;;;;34.90;27.55;;;;;;;0.66;100.00;96606.09;1027556;28;20019;-70
2020/12/18 00:51:52;;;;;;;33.67;26.50;;;;;;;0.66;100.00;96620.78;1029931;28;20815;-72
2020/12/18 00:52:26;;;;;;;36.02;27.58;;;;;;;0.63;100.00;96606.44;1030069;28;20015;-72
2020/12/18 00:52:56;;;;;;;35.92;26.36;;;;;;;0.65;100.00;96609.66;1026942;28;20102;-72
2020/12/18 00:53:27;;;;;;;36.85;28.08;;;;;;;0.63;100.00;96608.22;1031187;28;20389;-73
2020/12/18 00:53:57;;;;;;;36.97;27.80;;;;;;;0.66;100.00;96613.03;1030929;28;20049;-72
2020/12/18 00:54:28;;;;;;;35.53;27.08;;;;;;;0.57;100.00;96593.44;1033896;28;20079;-69
2020/12/18 00:54:58;;;;;;;35.35;27.73;;;;;;;0.66;100.00;96620.78;1034450;28;20052;-72
2020/12/18 00:55:29;;;;;;;38.08;28.63;;;;;;;0.60;100.00;96599.03;1030521;28;20010;-71
2020/12/18 00:55:59;;;;;;;36.33;27.88;;;;;;;0.58;100.00;96601.03;1026305;28;20023;-73
2020/12/18 00:56:30;;;;;;;36.10;27.45;;;;;;;0.69;100.00;96608.31;1022096;28;20027;-68
2020/12/18 00:57:00;;;;;;;37.73;28.93;;;;;;;0.68;100.00;96605.94;1022544;28;20759;-72
2020/12/18 00:57:31;;;;;;;35.92;26.52;;;;;;;0.68;100.00;96611.09;1022653;28;20074;-71
2020/12/18 00:58:01;;;;;;;34.33;25.17;;;;;;;0.64;100.00;96600.31;1026452;28;20448;-71
2020/12/18 00:58:32;;;;;;;37.67;27.20;;;;;;;0.60;100.00;96593.09;1022460;28;20019;-72
2020/12/18 00:59:02;;;;;;;38.53;27.35;;;;;;;0.67;100.00;96605.13;1018526;29;20024;-70
2020/12/18 00:59:32;;;;;;;33.33;25.30;;;;;;;0.61;100.00;96592.13;1022562;29;20020;-72
2020/12/18 01:00:05;;;;;;;31.37;25.50;;;;;;;0.59;100.00;96589.72;1022911;28;20019;-72
2020/12/18 01:00:35;;;;;;;32.84;24.68;;;;;;;0.66;100.00;96598.34;1026938;28;20412;-71
2020/12/18 01:01:06;;;;;;;33.60;26.25;;;;;;;0.60;100.00;96588.72;1030252;28;20026;-71
2020/12/18 01:01:37;;;;;;;34.47;25.63;;;;;;;0.62;100.00;96599.69;1023020;28;21041;-70
2020/12/18 01:02:08;;;;;;;35.60;25.80;;;;;;;0.64;100.00;96600.31;1022131;28;20293;-72
2020/12/18 01:02:38;;;;;;;32.38;26.20;;;;;;;0.56;100.00;96587.47;1026391;28;20015;-70
2020/12/18 01:03:09;;;;;;;33.60;26.55;;;;;;;0.56;100.00;96581.53;1030264;28;20388;-70
2020/12/18 01:03:39;;;;;;;35.33;26.47;;;;;;;0.55;100.00;96580.72;1026599;28;20023;-72
2020/12/18 01:04:10;;;;;;;34.55;25.33;;;;;;;0.65;100.00;96601.91;1018329;29;20019;-73
2020/12/18 01:04:40;;;;;;;32.47;25.50;;;;;;;0.65;100.00;96606.28;1022318;29;20683;-70
2020/12/18 01:05:11;;;;;;;33.17;26.50;;;;;;;0.64;100.00;96600.31;1026062;28;20011;-71
2020/12/18 01:05:41;;;;;;;31.10;24.40;;;;;;;0.64;100.00;96602.09;1022439;28;20027;-71
2020/12/18 01:06:12;;;;;;;32.87;26.33;;;;;;;0.55;100.00;96585.09;1030532;28;20095;-72
2020/12/18 01:06:42;;;;;;;31.73;24.75;;;;;;;0.65;100.00;96601.13;1051342;28;20456;-71
2020/12/18 01:07:12;;;;;;;35.00;26.10;;;;;;;0.67;100.00;96604.31;1051557;28;20015;-71
2020/12/18 01:07:43;;;;;;;31.63;25.38;;;;;;;0.66;100.00;96607.88;1051613;28;20025;-73
2020/12/18 01:08:13;;;;;;;31.95;25.15;;;;;;;0.65;100.00;96607.06;1046821;28;20421;-73
2020/12/18 01:08:44;;;;;;;31.98;25.38;;;;;;;0.56;100.00;96592.66;1030390;28;20021;-70
2020/12/18 01:09:14;;;;;;;31.13;24.73;;;;;;;0.68;100.00;96600.75;1030375;28;20335;-71
2020/12/18 01:09:45;;;;;;;33.63;25.10;;;;;;;0.68;100.00;96606.72;1026358;28;20504;-71
2020/12/18 01:10:15;;;;;;;32.38;25.75;;;;;;;0.67;100.00;96607.72;1032077;28;20027;-71
2020/12/18 01:10:46;;;;;;;32.22;24.60;;;;;;;0.68;100.00;96606.72;1025995;28;20031;-70
2020/12/18 01:11:16;;;;;;;28.65;23.88;;;;;;;0.66;100.00;96605.28;1026328;28;20041;-71
2020/12/18 01:11:47;;;;;;;31.92;25.98;;;;;;;0.60;100.00;96596.47;1023317;28;20049;-72
2020/12/18 01:12:17;;;;;;;32.72;25.50;;;;;;;0.68;100.00;96611.09;1047264;28;20058;-72
2020/12/18 01:12:48;;;;;;;31.35;24.33;;;;;;;0.67;100.00;96610.28;1030396;28;20088;-72
2020/12/18 01:13:19;;;;;;;32.50;25.16;;;;;;;0.70;100.00;96615.09;1026223;28;20034;-73
2020/12/18 01:13:49;;;;;;;31.48;25.48;;;;;;;0.70;100.00;96615.09;1030460;28;20022;-71
2020/12/18 01:14:20;;;;;;;30.92;25.58;;;;;;;0.63;100.00;96606.44;1030481;28;20019;-72
2020/12/18 01:14:51;;;;;;;28.52;24.25;;;;;;;0.72;100.00;96616.69;1034483;28;20056;-70
2020/12/18 01:15:21;;;;;;;33.30;27.58;;;;;;;0.74;100.00;96619.88;1029880;28;20296;-70
2020/12/18 01:15:52;;;;;;;31.48;25.33;;;;;;;0.73;100.00;96620.88;1030387;28;20028;-72
2020/12/18 01:16:22;;;;;;;32.30;25.42;;;;;;;0.72;100.00;96617.50;1030662;28;20030;-70
2020/12/18 01:16:53;;;;;;;32.40;24.15;;;;;;;0.67;100.00;96615.47;1034249;28;20067;-68
2020/12/18 01:17:24;;;;;;;29.26;23.84;;;;;;;0.74;100.00;96625.06;1030176;28;20667;-71
2020/12/18 01:17:54;;;;;;;28.42;23.67;;;;;;;0.78;100.00;96626.31;1026385;28;20042;-71
2020/12/18 01:18:25;;;;;;;27.25;23.48;;;;;;;0.79;100.00;96620.16;1018469;28;20432;-72
2020/12/18 01:18:55;;;;;;;28.73;22.75;;;;;;;0.78;100.00;96627.13;1022747;28;20027;-71
2020/12/18 01:19:26;;;;;;;30.23;24.80;;;;;;;0.79;100.00;96625.34;1030314;28;20107;-71
2020/12/18 01:19:57;;;;;;;28.40;23.85;;;;;;;0.71;100.00;96615.91;1034390;28;20030;-71
2020/12/18 01:20:27;;;;;;;28.83;23.55;;;;;;;0.82;100.00;96627.56;1034794;28;20026;-70
2020/12/18 01:20:59;;;;;;;27.58;22.83;;;;;;;0.76;100.00;96613.56;1034434;28;20029;-71
2020/12/18 01:21:29;;;;;;;32.40;25.76;;;;;;;0.81;100.00;96615.63;1029590;28;20025;-71
2020/12/18 01:22:00;;;;;;;28.40;23.98;;;;;;;0.82;100.00;96619.81;1030595;28;20037;-71
2020/12/18 01:22:30;;;;;;;31.63;23.63;;;;;;;0.82;100.00;96619.81;1034502;28;20018;-71
2020/12/18 01:23:00;;;;;;;31.25;24.25;;;;;;;0.81;100.00;96618.22;1030489;28;20030;-72
2020/12/18 01:23:31;;;;;;;27.77;22.63;;;;;;;0.76;100.00;96607.59;1026071;28;20423;-74
2020/12/18 01:24:02;;;;;;;27.80;22.98;;;;;;;0.81;100.00;96619.00;1026153;28;20031;-71
2020/12/18 01:24:32;;;;;;;31.00;24.63;;;;;;;0.80;100.00;96616.59;1026509;28;20031;-73
2020/12/18 01:25:03;;;;;;;27.90;23.63;;;;;;;0.76;100.00;96607.59;1030441;28;20491;-71
2020/12/18 01:25:33;;;;;;;26.67;22.90;;;;;;;0.81;100.00;96618.22;1042766;28;20036;-71
2020/12/18 01:26:04;;;;;;;27.13;23.05;;;;;;;0.80;100.00;96616.59;1047157;28;20062;-71
2020/12/18 01:26:34;;;;;;;30.23;23.08;;;;;;;0.73;100.00;96606.19;1051576;28;20036;-71
2020/12/18 01:27:05;;;;;;;27.65;22.90;;;;;;;0.74;100.00;96610.38;1046972;28;20032;-71
2020/12/18 01:27:35;;;;;;;28.50;23.13;;;;;;;0.81;100.00;96615.63;1030442;28;20064;-71
2020/12/18 01:28:06;;;;;;;24.98;22.25;;;;;;;0.82;100.00;96617.22;1034123;28;20022;-72
2020/12/18 01:28:36;;;;;;;28.33;21.80;;;;;;;0.82;100.00;96622.41;1034299;28;20025;-72
2020/12/18 01:29:07;;;;;;;25.60;21.63;;;;;;;0.80;100.00;96619.97;1038439;28;20032;-71
2020/12/18 01:29:37;;;;;;;28.00;22.65;;;;;;;0.81;100.00;96615.63;1034323;28;20033;-72
2020/12/18 01:30:07;;;;;;;23.77;21.15;;;;;;;0.83;100.00;96621.41;1035989;28;20086;-71
2020/12/18 01:30:38;;;;;;;26.38;21.77;;;;;;;0.79;100.00;96613.22;1038225;28;20029;-71
2020/12/18 01:31:08;;;;;;;27.85;22.85;;;;;;;0.81;100.00;96620.81;1030447;28;20227;-71
2020/12/18 01:31:39;;;;;;;23.70;21.08;;;;;;;0.82;100.00;96618.03;1032667;28;20041;-69
2020/12/18 01:32:09;;;;;;;25.23;21.67;;;;;;;0.84;100.00;96620.41;1028973;28;20457;-69
2020/12/18 01:32:40;;;;;;;22.63;19.73;;;;;;;0.73;100.00;96603.59;1026521;28;20027;-73
2020/12/18 01:33:10;;;;;;;24.63;21.38;;;;;;;0.84;100.00;96625.59;1030263;28;20030;-71
2020/12/18 01:33:41;;;;;;;26.42;21.98;;;;;;;0.85;100.00;96622.03;1030192;28;20435;-72
2020/12/18 01:34:11;;;;;;;24.73;20.45;;;;;;;0.84;100.00;96620.41;1025956;28;20551;-71
2020/12/18 01:34:44;;;;;;;24.65;20.65;;;;;;;0.77;100.00;96614.38;1026300;28;20027;-72
2020/12/18 01:35:14;;;;;;;26.32;21.34;;;;;;;0.80;100.00;96614.81;1022249;29;20023;-70
2020/12/18 01:35:45;;;;;;;24.60;20.25;;;;;;;0.82;100.00;96623.19;1018226;29;20035;-72
2020/12/18 01:36:15;;;;;;;23.25;20.42;;;;;;;0.88;100.00;96626.84;1024787;28;20129;-73
2020/12/18 01:36:46;;;;;;;26.83;20.80;;;;;;;0.78;100.00;96610.81;1026134;28;20400;-70
2020/12/18 01:37:16;;;;;;;23.08;20.17;;;;;;;0.85;100.00;96625.41;1032436;28;20187;-74
2020/12/18 01:37:47;;;;;;;21.77;19.48;;;;;;;0.84;100.00;96623.81;1018405;29;20598;-71
2020/12/18 01:38:17;;;;;;;24.70;20.02;;;;;;;0.79;100.00;96617.59;1024350;28;20027;-72
2020/12/18 01:38:48;;;;;;;24.05;20.17;;;;;;;0.84;100.00;96626.41;1025762;28;20035;-71
2020/12/18 01:39:18;;;;;;;21.55;19.08;;;;;;;0.80;100.00;96614.00;1023277;28;20038;-73
2020/12/18 01:39:49;;;;;;;21.55;19.02;;;;;;;0.81;100.00;96610.47;1026288;28;20080;-73
2020/12/18 01:40:19;;;;;;;21.42;19.10;;;;;;;0.92;100.00;96633.25;1028044;28;20023;-72
2020/12/18 01:40:50;;;;;;;23.25;20.35;;;;;;;0.84;100.00;96616.06;1042161;28;20462;-72
2020/12/18 01:41:20;;;;;;;23.25;20.08;;;;;;;0.93;100.00;96627.09;1024639;28;20627;-72
2020/12/18 01:41:50;;;;;;;21.38;19.15;;;;;;;0.95;100.00;96635.47;1035188;28;20025;-70
2020/12/18 01:42:21;;;;;;;23.95;19.55;;;;;;;0.93;100.00;96633.06;1030022;28;20066;-72
2020/12/18 01:42:51;;;;;;;22.88;19.63;;;;;;;0.90;100.00;96624.88;1029345;28;20035;-70
2020/12/18 01:43:22;;;;;;;22.92;19.30;;;;;;;0.97;100.00;96636.09;1029830;28;20022;-72
2020/12/18 01:43:52;;;;;;;21.45;19.15;;;;;;;0.98;100.00;96629.97;1026141;28;20027;-70
2020/12/18 01:44:23;;;;;;;22.13;19.65;;;;;;;1.01;100.00;96637.34;1029715;28;20053;-72
2020/12/18 01:44:53;;;;;;;22.30;19.38;;;;;;;0.98;100.00;96631.75;1030150;28;20083;-72
2020/12/18 01:45:24;;;;;;;20.00;17.60;;;;;;;0.98;100.00;96637.72;1030071;28;20038;-72
2020/12/18 01:45:54;;;;;;;23.13;18.63;;;;;;;1.01;100.00;96627.00;1026223;28;20034;-69
2020/12/18 01:46:27;;;;;;;21.00;18.30;;;;;;;0.94;100.00;96618.38;1021921;29;20031;-71
2020/12/18 01:46:57;;;;;;;21.92;18.88;;;;;;;0.97;100.00;96625.75;1025881;28;20569;-71
2020/12/18 01:47:29;;;;;;;23.05;20.10;;;;;;;0.98;100.00;96629.16;1022253;29;20035;-71
2020/12/18 01:48:00;;;;;;;23.78;20.02;;;;;;;1.03;100.00;96629.41;1022251;29;20118;-71
2020/12/18 01:48:30;;;;;;;21.70;19.23;;;;;;;1.01;100.00;96632.19;1028106;28;20031;-71
2020/12/18 01:49:01;;;;;;;22.52;19.80;;;;;;;1.00;100.00;96633.16;1023243;28;20027;-72
2020/12/18 01:49:31;;;;;;;23.88;19.75;;;;;;;0.98;100.00;96632.53;1026388;28;20027;-71
2020/12/18 01:50:02;;;;;;;21.58;18.88;;;;;;;0.97;100.00;96628.34;1022190;28;20031;-70
2020/12/18 01:50:33;;;;;;;23.42;18.10;;;;;;;1.00;100.00;96630.56;1024075;28;20081;-69
2020/12/18 01:51:03;;;;;;;20.70;18.42;;;;;;;1.02;100.00;96632.97;1030212;28;20545;-71
2020/12/18 01:51:34;;;;;;;21.20;18.65;;;;;;;1.03;100.00;96643.13;1024825;28;20015;-72
2020/12/18 01:52:04;;;;;;;19.90;17.73;;;;;;;1.02;100.00;96633.78;1022349;28;20023;-71
2020/12/18 01:52:35;;;;;;;19.83;17.73;;;;;;;1.01;100.00;96632.19;1030147;28;20045;-70
2020/12/18 01:53:05;;;;;;;21.25;18.73;;;;;;;0.81;100.00;96605.31;1034183;28;20092;-73
2020/12/18 01:53:37;;;;;;;20.75;17.63;;;;;;;0.94;100.00;96618.38;1034319;28;20017;-71
2020/12/18 01:54:07;;;;;;;24.24;18.64;;;;;;;1.07;100.00;96641.78;1026048;28;20019;-72
2020/12/18 01:54:38;;;;;;;22.33;19.08;;;;;;;1.01;100.00;96632.19;1026042;28;20019;-71
2020/12/18 01:55:08;;;;;;;20.85;17.92;;;;;;;0.99;100.00;96633.34;1030401;28;20472;-71
2020/12/18 01:55:39;;;;;;;19.75;17.70;;;;;;;0.98;100.00;96629.97;1026134;28;20118;-72
2020/12/18 01:56:09;;;;;;;24.02;19.10;;;;;;;0.91;100.00;96616.16;1030271;28;20022;-72
2020/12/18 01:56:40;;;;;;;24.15;20.55;;;;;;;1.04;100.00;96637.00;1029956;28;20026;-71
2020/12/18 01:57:11;;;;;;;22.33;19.92;;;;;;;0.98;100.00;96629.16;1026206;28;20014;-73
2020/12/18 01:57:41;;;;;;;25.90;21.35;;;;;;;1.00;100.00;96630.56;1026265;28;20022;-71
2020/12/18 01:58:12;;;;;;;24.98;20.90;;;;;;;0.93;100.00;96619.34;1022090;28;20031;-70
2020/12/18 01:58:42;;;;;;;24.63;21.05;;;;;;;1.00;100.00;96625.41;1020356;28;20113;-70
2020/12/18 01:59:12;;;;;;;21.30;19.02;;;;;;;1.00;100.00;96635.72;1022099;28;20023;-71
2020/12/18 01:59:43;;;;;;;24.10;19.48;;;;;;;0.92;100.00;96622.91;1021439;28;20528;-74
2020/12/18 02:00:13;;;;;;;22.73;19.80;;;;;;;0.96;100.00;96624.16;1018360;29;20020;-70
2020/12/18 02:00:44;;;;;;;23.50;19.75;;;;;;;1.03;100.00;96634.56;1018364;29;20026;-70
2020/12/18 02:01:14;;;;;;;20.45;18.25;;;;;;;0.93;100.00;96621.94;1026182;28;20030;-71
2020/12/18 02:01:45;;;;;;;20.17;17.63;;;;;;;0.91;100.00;96622.13;1025253;28;20031;-72
2020/12/18 02:02:16;;;;;;;24.75;18.15;;;;;;;1.00;100.00;96630.56;1022243;29;20432;-70
2020/12/18 02:02:46;;;;;;;22.02;18.60;;;;;;;0.93;100.00;96629.69;1026232;28;20030;-72
2020/12/18 02:03:17;;;;;;;23.15;18.05;;;;;;;1.02;100.00;96638.16;1022003;28;20027;-70
2020/12/18 02:03:47;;;;;;;20.60;18.27;;;;;;;1.01;100.00;96632.19;1026354;28;20152;-71
2020/12/18 02:04:18;;;;;;;21.40;19.10;;;;;;;1.06;100.00;96634.22;1029914;28;20484;-71
2020/12/18 02:04:48;;;;;;;23.17;20.00;;;;;;;0.84;100.00;96604.91;1026022;28;20035;-71
2020/12/18 02:05:19;;;;;;;22.65;19.25;;;;;;;1.07;100.00;96630.66;1026244;28;20027;-72
2020/12/18 02:05:49;;;;;;;21.65;18.77;;;;;;;1.07;100.00;96639.19;1034293;28;20018;-71
2020/12/18 02:06:21;;;;;;;22.58;18.33;;;;;;;1.02;100.00;96627.81;1034208;28;20032;-70
2020/12/18 02:06:54;;;;;;;19.92;17.26;;;;;;;1.10;100.00;96636.25;1029099;28;20522;-71
2020/12/18 02:07:26;;;;;;;22.00;19.22;;;;;;;1.03;100.00;96617.28;1030071;28;20034;-71
2020/12/18 02:08:03;;;;;;;22.36;18.86;;;;;;;1.15;100.00;96630.56;1022155;28;20015;-71
2020/12/18 02:08:34;;;;;;;20.68;17.88;;;;;;;1.15;100.00;96639.09;1032676;28;20050;-71
2020/12/18 02:09:04;;;;;;;27.63;18.98;;;;;;;1.15;100.00;96639.09;1030235;28;20035;-72
2020/12/18 02:09:35;;;;;;;22.40;17.42;;;;;;;1.16;100.00;96635.53;1026951;28;20057;-72
2020/12/18 02:10:05;;;;;;;21.98;19.10;;;;;;;1.19;100.00;96639.53;1020473;29;20805;-72
2020/12/18 02:10:36;;;;;;;25.20;18.98;;;;;;;1.15;100.00;96633.94;1018492;29;20039;-72
2020/12/18 02:11:06;;;;;;;23.10;18.45;;;;;;;1.13;100.00;96632.50;1018327;28;20094;-71
2020/12/18 02:11:37;;;;;;;23.90;19.00;;;;;;;1.18;100.00;96637.94;1021444;28;20075;-72
2020/12/18 02:12:10;;;;;;;25.13;19.30;;;;;;;1.10;100.00;96628.50;1030216;28;20019;-71
2020/12/18 02:12:41;;;;;;;21.62;18.96;;;;;;;1.16;100.00;96629.56;1026696;28;20069;-66
2020/12/18 02:13:11;;;;;;;22.73;19.20;;;;;;;1.17;100.00;96637.16;1026294;28;20026;-70
2020/12/18 02:13:42;;;;;;;27.15;20.58;;;;;;;1.18;100.00;96628.41;1030432;28;20018;-71
2020/12/18 02:14:13;;;;;;;21.67;18.05;;;;;;;1.27;100.00;96639.44;1034113;28;20542;-70
2020/12/18 02:14:43;;;;;;;21.35;18.50;;;;;;;1.28;100.00;96632.50;1034397;28;20022;-70
2020/12/18 02:15:14;;;;;;;22.08;18.95;;;;;;;1.26;100.00;96640.41;1031925;28;20033;-70
2020/12/18 02:15:44;;;;;;;22.65;19.02;;;;;;;1.17;100.00;96624.22;1029886;28;20018;-71
2020/12/18 02:16:15;;;;;;;24.42;19.92;;;;;;;1.26;100.00;96632.66;1026150;28;20053;-71
2020/12/18 02:16:45;;;;;;;21.13;18.08;;;;;;;1.27;100.00;96636.84;1029749;28;20018;-70
2020/12/18 02:17:16;;;;;;;22.08;18.98;;;;;;;1.24;100.00;96628.66;1022313;28;20031;-70
2020/12/18 02:17:49;;;;;;;21.36;18.72;;;;;;;1.27;100.00;96636.03;1022148;29;20038;-71
2020/12/18 02:18:19;;;;;;;19.92;17.78;;;;;;;1.14;100.00;96621.19;1022426;28;20027;-70
2020/12/18 02:18:50;;;;;;;23.65;19.05;;;;;;;1.25;100.00;96635.44;1027991;28;20426;-70
2020/12/18 02:19:21;;;;;;;20.75;18.27;;;;;;;1.22;100.00;96639.19;1030579;28;20364;-70
2020/12/18 02:19:52;;;;;;;23.40;18.98;;;;;;;1.18;100.00;96633.59;1030102;28;20393;-72
2020/12/18 02:20:25;;;;;;;24.38;18.16;;;;;;;1.24;100.00;96631.25;1024311;28;20019;-71
2020/12/18 02:20:55;;;;;;;23.86;17.86;;;;;;;1.26;100.00;96634.44;1022165;29;20019;-72